sensor_id;sensor_type;location;lat;lon;timestamp;P1;durP1;ratioP1;P2;durP2;ratioP2
36205;SDS011;22242;48.796;9.930;2022-08-19T00:00:38;14.82;;;13.25;;
36205;SDS011;22242;48.796;9.930;2022-08-19T00:03:05;15.38;;;13.07;;
36205;SDS011;22242;48.796;9.930;2022-08-19T00:05:33;17.73;;;13.75;;
36205;SDS011;22242;48.796;9.930;2022-08-19T00:08:00;14.38;;;12.88;;
36205;SDS011;22242;48.796;9.930;2022-08-19T00:10:27;17.27;;;13.70;;
36205;SDS011;22242;48.796;9.930;2022-08-19T00:12:55;16.23;;;13.50;;
36205;SDS011;22242;48.796;9.930;2022-08-19T00:15:22;15.02;;;13.45;;
36205;SDS011;22242;48.796;9.930;2022-08-19T00:17:50;15.48;;;13.88;;
36205;SDS011;22242;48.796;9.930;2022-08-19T00:20:19;16.35;;;14.75;;
36205;SDS011;22242;48.796;9.930;2022-08-19T00:22:47;15.13;;;13.63;;
36205;SDS011;22242;48.796;9.930;2022-08-19T00:25:14;15.00;;;13.45;;
36205;SDS011;22242;48.796;9.930;2022-08-19T00:27:41;16.40;;;13.88;;
36205;SDS011;22242;48.796;9.930;2022-08-19T00:30:08;15.85;;;14.15;;
36205;SDS011;22242;48.796;9.930;2022-08-19T00:32:36;17.20;;;14.48;;
36205;SDS011;22242;48.796;9.930;2022-08-19T00:35:05;15.73;;;14.10;;
36205;SDS011;22242;48.796;9.930;2022-08-19T00:37:34;16.67;;;14.70;;
36205;SDS011;22242;48.796;9.930;2022-08-19T00:40:03;17.27;;;14.38;;
36205;SDS011;22242;48.796;9.930;2022-08-19T00:42:31;15.88;;;14.25;;
36205;SDS011;22242;48.796;9.930;2022-08-19T00:44:58;18.48;;;15.13;;
36205;SDS011;22242;48.796;9.930;2022-08-19T00:47:25;16.92;;;15.13;;
36205;SDS011;22242;48.796;9.930;2022-08-19T00:49:53;17.98;;;15.75;;
36205;SDS011;22242;48.796;9.930;2022-08-19T00:52:25;17.58;;;15.85;;
36205;SDS011;22242;48.796;9.930;2022-08-19T00:54:55;19.45;;;17.38;;
36205;SDS011;22242;48.796;9.930;2022-08-19T00:57:24;18.83;;;16.92;;
36205;SDS011;22242;48.796;9.930;2022-08-19T00:59:55;20.93;;;17.73;;
36205;SDS011;22242;48.796;9.930;2022-08-19T01:02:24;21.55;;;17.58;;
36205;SDS011;22242;48.796;9.930;2022-08-19T01:04:52;19.85;;;17.33;;
36205;SDS011;22242;48.796;9.930;2022-08-19T01:07:19;20.38;;;17.40;;
36205;SDS011;22242;48.796;9.930;2022-08-19T01:09:48;21.25;;;17.95;;
36205;SDS011;22242;48.796;9.930;2022-08-19T01:12:15;20.73;;;17.67;;
36205;SDS011;22242;48.796;9.930;2022-08-19T01:14:44;18.83;;;16.83;;
36205;SDS011;22242;48.796;9.930;2022-08-19T01:17:12;22.25;;;17.85;;
36205;SDS011;22242;48.796;9.930;2022-08-19T01:19:40;20.25;;;18.15;;
36205;SDS011;22242;48.796;9.930;2022-08-19T01:22:11;22.00;;;17.95;;
36205;SDS011;22242;48.796;9.930;2022-08-19T01:24:43;19.35;;;17.25;;
36205;SDS011;22242;48.796;9.930;2022-08-19T01:27:10;20.67;;;17.88;;
36205;SDS011;22242;48.796;9.930;2022-08-19T01:29:37;20.38;;;17.73;;
36205;SDS011;22242;48.796;9.930;2022-08-19T01:32:06;21.38;;;17.70;;
36205;SDS011;22242;48.796;9.930;2022-08-19T01:34:35;19.52;;;17.23;;
36205;SDS011;22242;48.796;9.930;2022-08-19T01:37:05;20.60;;;17.20;;
36205;SDS011;22242;48.796;9.930;2022-08-19T01:42:05;19.20;;;17.08;;
36205;SDS011;22242;48.796;9.930;2022-08-19T01:44:35;20.05;;;17.95;;
36205;SDS011;22242;48.796;9.930;2022-08-19T01:47:03;21.05;;;17.00;;
36205;SDS011;22242;48.796;9.930;2022-08-19T01:49:30;22.30;;;18.70;;
36205;SDS011;22242;48.796;9.930;2022-08-19T01:51:58;20.58;;;17.83;;
36205;SDS011;22242;48.796;9.930;2022-08-19T01:54:26;22.58;;;18.92;;
36205;SDS011;22242;48.796;9.930;2022-08-19T01:56:54;24.33;;;18.90;;
36205;SDS011;22242;48.796;9.930;2022-08-19T01:59:26;21.58;;;17.75;;
36205;SDS011;22242;48.796;9.930;2022-08-19T02:01:53;20.38;;;17.10;;
36205;SDS011;22242;48.796;9.930;2022-08-19T02:04:20;20.17;;;16.95;;
36205;SDS011;22242;48.796;9.930;2022-08-19T02:06:48;19.77;;;17.52;;
36205;SDS011;22242;48.796;9.930;2022-08-19T02:09:15;20.88;;;17.50;;
36205;SDS011;22242;48.796;9.930;2022-08-19T02:11:42;20.60;;;16.70;;
36205;SDS011;22242;48.796;9.930;2022-08-19T02:14:09;23.85;;;17.33;;
36205;SDS011;22242;48.796;9.930;2022-08-19T02:16:37;20.02;;;17.00;;
36205;SDS011;22242;48.796;9.930;2022-08-19T02:19:05;19.75;;;17.02;;
36205;SDS011;22242;48.796;9.930;2022-08-19T02:21:32;23.05;;;17.27;;
36205;SDS011;22242;48.796;9.930;2022-08-19T02:23:59;18.40;;;16.45;;
36205;SDS011;22242;48.796;9.930;2022-08-19T02:26:26;19.05;;;16.30;;
36205;SDS011;22242;48.796;9.930;2022-08-19T02:28:54;22.38;;;17.70;;
36205;SDS011;22242;48.796;9.930;2022-08-19T02:31:22;20.45;;;17.63;;
36205;SDS011;22242;48.796;9.930;2022-08-19T02:33:52;20.33;;;16.90;;
36205;SDS011;22242;48.796;9.930;2022-08-19T02:36:20;18.92;;;16.73;;
36205;SDS011;22242;48.796;9.930;2022-08-19T02:38:47;26.30;;;17.15;;
36205;SDS011;22242;48.796;9.930;2022-08-19T02:41:14;23.70;;;18.40;;
36205;SDS011;22242;48.796;9.930;2022-08-19T02:43:44;22.50;;;19.33;;
36205;SDS011;22242;48.796;9.930;2022-08-19T02:46:12;22.88;;;18.23;;
36205;SDS011;22242;48.796;9.930;2022-08-19T02:48:46;19.77;;;17.60;;
36205;SDS011;22242;48.796;9.930;2022-08-19T02:51:20;22.10;;;18.77;;
36205;SDS011;22242;48.796;9.930;2022-08-19T02:53:49;21.13;;;17.77;;
36205;SDS011;22242;48.796;9.930;2022-08-19T02:56:16;20.58;;;17.60;;
36205;SDS011;22242;48.796;9.930;2022-08-19T02:58:44;21.02;;;18.17;;
36205;SDS011;22242;48.796;9.930;2022-08-19T03:01:11;21.25;;;18.20;;
36205;SDS011;22242;48.796;9.930;2022-08-19T03:03:45;21.30;;;18.02;;
36205;SDS011;22242;48.796;9.930;2022-08-19T03:06:14;22.30;;;19.30;;
36205;SDS011;22242;48.796;9.930;2022-08-19T03:08:44;21.77;;;18.75;;
36205;SDS011;22242;48.796;9.930;2022-08-19T03:11:12;20.42;;;18.08;;
36205;SDS011;22242;48.796;9.930;2022-08-19T03:13:40;22.08;;;19.38;;
36205;SDS011;22242;48.796;9.930;2022-08-19T03:16:08;21.30;;;19.02;;
36205;SDS011;22242;48.796;9.930;2022-08-19T03:18:36;27.05;;;20.75;;
36205;SDS011;22242;48.796;9.930;2022-08-19T03:21:03;23.77;;;20.58;;
36205;SDS011;22242;48.796;9.930;2022-08-19T03:23:30;27.63;;;21.25;;
36205;SDS011;22242;48.796;9.930;2022-08-19T03:25:59;24.45;;;20.20;;
36205;SDS011;22242;48.796;9.930;2022-08-19T03:28:29;26.95;;;21.75;;
36205;SDS011;22242;48.796;9.930;2022-08-19T03:30:57;29.58;;;22.15;;
36205;SDS011;22242;48.796;9.930;2022-08-19T03:33:26;24.58;;;21.48;;
36205;SDS011;22242;48.796;9.930;2022-08-19T03:36:04;24.55;;;21.17;;
36205;SDS011;22242;48.796;9.930;2022-08-19T03:38:33;25.90;;;22.17;;
36205;SDS011;22242;48.796;9.930;2022-08-19T03:41:06;27.33;;;22.48;;
36205;SDS011;22242;48.796;9.930;2022-08-19T03:43:35;26.92;;;22.67;;
36205;SDS011;22242;48.796;9.930;2022-08-19T03:46:04;25.80;;;22.42;;
36205;SDS011;22242;48.796;9.930;2022-08-19T03:48:33;29.23;;;22.63;;
36205;SDS011;22242;48.796;9.930;2022-08-19T03:51:02;28.40;;;22.08;;
36205;SDS011;22242;48.796;9.930;2022-08-19T03:53:30;27.60;;;22.42;;
36205;SDS011;22242;48.796;9.930;2022-08-19T03:55:58;28.52;;;22.27;;
36205;SDS011;22242;48.796;9.930;2022-08-19T03:58:27;29.45;;;23.33;;
36205;SDS011;22242;48.796;9.930;2022-08-19T04:00:55;26.98;;;22.90;;
36205;SDS011;22242;48.796;9.930;2022-08-19T04:03:22;28.23;;;22.58;;
36205;SDS011;22242;48.796;9.930;2022-08-19T04:05:49;29.08;;;23.05;;
36205;SDS011;22242;48.796;9.930;2022-08-19T04:08:16;26.60;;;22.42;;
36205;SDS011;22242;48.796;9.930;2022-08-19T04:10:45;30.23;;;23.40;;
36205;SDS011;22242;48.796;9.930;2022-08-19T04:13:13;27.60;;;22.13;;
36205;SDS011;22242;48.796;9.930;2022-08-19T04:15:41;27.52;;;22.52;;
36205;SDS011;22242;48.796;9.930;2022-08-19T04:18:11;30.33;;;23.75;;
36205;SDS011;22242;48.796;9.930;2022-08-19T04:20:42;29.95;;;23.95;;
36205;SDS011;22242;48.796;9.930;2022-08-19T04:23:11;30.45;;;24.35;;
36205;SDS011;22242;48.796;9.930;2022-08-19T04:25:39;31.25;;;24.67;;
36205;SDS011;22242;48.796;9.930;2022-08-19T04:28:07;30.15;;;23.75;;
36205;SDS011;22242;48.796;9.930;2022-08-19T04:30:39;34.70;;;24.00;;
36205;SDS011;22242;48.796;9.930;2022-08-19T04:33:09;31.30;;;24.10;;
36205;SDS011;22242;48.796;9.930;2022-08-19T04:35:38;30.05;;;23.08;;
36205;SDS011;22242;48.796;9.930;2022-08-19T04:38:07;29.25;;;24.45;;
36205;SDS011;22242;48.796;9.930;2022-08-19T04:40:34;31.38;;;24.52;;
36205;SDS011;22242;48.796;9.930;2022-08-19T04:43:23;29.73;;;24.23;;
36205;SDS011;22242;48.796;9.930;2022-08-19T04:45:52;29.67;;;23.45;;
36205;SDS011;22242;48.796;9.930;2022-08-19T04:48:19;28.50;;;23.15;;
36205;SDS011;22242;48.796;9.930;2022-08-19T04:50:51;28.25;;;22.23;;
36205;SDS011;22242;48.796;9.930;2022-08-19T04:53:21;31.83;;;23.65;;
36205;SDS011;22242;48.796;9.930;2022-08-19T04:55:49;32.25;;;23.52;;
36205;SDS011;22242;48.796;9.930;2022-08-19T04:58:16;27.83;;;22.88;;
36205;SDS011;22242;48.796;9.930;2022-08-19T05:00:43;26.83;;;20.60;;
36205;SDS011;22242;48.796;9.930;2022-08-19T05:03:11;28.40;;;21.85;;
36205;SDS011;22242;48.796;9.930;2022-08-19T05:05:42;30.38;;;22.02;;
36205;SDS011;22242;48.796;9.930;2022-08-19T05:08:11;27.73;;;22.10;;
36205;SDS011;22242;48.796;9.930;2022-08-19T05:10:38;27.92;;;22.73;;
36205;SDS011;22242;48.796;9.930;2022-08-19T05:13:06;26.70;;;21.55;;
36205;SDS011;22242;48.796;9.930;2022-08-19T05:15:34;27.05;;;21.15;;
36205;SDS011;22242;48.796;9.930;2022-08-19T05:18:01;29.77;;;21.90;;
36205;SDS011;22242;48.796;9.930;2022-08-19T05:20:47;30.58;;;21.60;;
36205;SDS011;22242;48.796;9.930;2022-08-19T05:23:32;29.95;;;22.42;;
36205;SDS011;22242;48.796;9.930;2022-08-19T05:25:59;28.48;;;22.35;;
36205;SDS011;22242;48.796;9.930;2022-08-19T05:28:26;26.60;;;21.30;;
36205;SDS011;22242;48.796;9.930;2022-08-19T05:30:53;27.02;;;21.55;;
36205;SDS011;22242;48.796;9.930;2022-08-19T05:33:20;28.73;;;21.08;;
36205;SDS011;22242;48.796;9.930;2022-08-19T05:35:49;28.65;;;21.08;;
36205;SDS011;22242;48.796;9.930;2022-08-19T05:38:17;28.10;;;22.15;;
36205;SDS011;22242;48.796;9.930;2022-08-19T05:40:45;26.70;;;21.27;;
36205;SDS011;22242;48.796;9.930;2022-08-19T05:43:14;27.98;;;20.95;;
36205;SDS011;22242;48.796;9.930;2022-08-19T05:45:42;25.38;;;20.27;;
36205;SDS011;22242;48.796;9.930;2022-08-19T05:48:09;28.42;;;21.05;;
36205;SDS011;22242;48.796;9.930;2022-08-19T05:50:37;27.75;;;21.55;;
36205;SDS011;22242;48.796;9.930;2022-08-19T05:53:07;28.02;;;21.83;;
36205;SDS011;22242;48.796;9.930;2022-08-19T05:55:35;25.95;;;21.58;;
36205;SDS011;22242;48.796;9.930;2022-08-19T05:58:03;24.75;;;19.65;;
36205;SDS011;22242;48.796;9.930;2022-08-19T06:00:32;26.40;;;21.10;;
36205;SDS011;22242;48.796;9.930;2022-08-19T06:02:59;28.60;;;21.15;;
36205;SDS011;22242;48.796;9.930;2022-08-19T06:05:28;27.02;;;22.05;;
36205;SDS011;22242;48.796;9.930;2022-08-19T06:07:55;31.52;;;22.85;;
36205;SDS011;22242;48.796;9.930;2022-08-19T06:10:25;27.90;;;21.00;;
36205;SDS011;22242;48.796;9.930;2022-08-19T06:12:53;25.23;;;20.25;;
36205;SDS011;22242;48.796;9.930;2022-08-19T06:15:21;24.23;;;20.20;;
36205;SDS011;22242;48.796;9.930;2022-08-19T06:17:53;23.50;;;19.63;;
36205;SDS011;22242;48.796;9.930;2022-08-19T06:20:20;27.63;;;21.17;;
36205;SDS011;22242;48.796;9.930;2022-08-19T06:22:48;25.70;;;20.40;;
36205;SDS011;22242;48.796;9.930;2022-08-19T06:25:16;26.48;;;20.67;;
36205;SDS011;22242;48.796;9.930;2022-08-19T06:27:45;24.58;;;20.52;;
36205;SDS011;22242;48.796;9.930;2022-08-19T06:30:12;25.50;;;19.80;;
36205;SDS011;22242;48.796;9.930;2022-08-19T06:32:39;26.65;;;21.58;;
36205;SDS011;22242;48.796;9.930;2022-08-19T06:35:07;28.27;;;21.88;;
36205;SDS011;22242;48.796;9.930;2022-08-19T06:37:34;27.83;;;21.48;;
36205;SDS011;22242;48.796;9.930;2022-08-19T06:40:02;28.08;;;21.55;;
36205;SDS011;22242;48.796;9.930;2022-08-19T06:42:29;27.35;;;20.95;;
36205;SDS011;22242;48.796;9.930;2022-08-19T06:44:57;26.70;;;21.92;;
36205;SDS011;22242;48.796;9.930;2022-08-19T06:47:27;31.15;;;23.55;;
36205;SDS011;22242;48.796;9.930;2022-08-19T06:49:54;28.60;;;22.05;;
36205;SDS011;22242;48.796;9.930;2022-08-19T06:52:28;30.02;;;21.70;;
36205;SDS011;22242;48.796;9.930;2022-08-19T06:54:54;26.92;;;22.10;;
36205;SDS011;22242;48.796;9.930;2022-08-19T06:57:22;31.70;;;24.58;;
36205;SDS011;22242;48.796;9.930;2022-08-19T06:59:50;31.33;;;23.55;;
36205;SDS011;22242;48.796;9.930;2022-08-19T07:02:19;28.67;;;22.85;;
36205;SDS011;22242;48.796;9.930;2022-08-19T07:04:46;30.85;;;23.20;;
36205;SDS011;22242;48.796;9.930;2022-08-19T07:07:13;30.20;;;23.25;;
36205;SDS011;22242;48.796;9.930;2022-08-19T07:09:42;31.67;;;24.42;;
36205;SDS011;22242;48.796;9.930;2022-08-19T07:12:10;34.08;;;24.55;;
36205;SDS011;22242;48.796;9.930;2022-08-19T07:14:40;31.65;;;24.58;;
36205;SDS011;22242;48.796;9.930;2022-08-19T07:17:10;32.45;;;24.63;;
36205;SDS011;22242;48.796;9.930;2022-08-19T07:19:40;32.38;;;23.75;;
36205;SDS011;22242;48.796;9.930;2022-08-19T07:22:07;34.42;;;24.60;;
36205;SDS011;22242;48.796;9.930;2022-08-19T07:24:35;35.33;;;24.85;;
36205;SDS011;22242;48.796;9.930;2022-08-19T07:27:03;33.13;;;24.15;;
36205;SDS011;22242;48.796;9.930;2022-08-19T07:29:32;34.45;;;24.15;;
36205;SDS011;22242;48.796;9.930;2022-08-19T07:32:01;34.92;;;24.98;;
36205;SDS011;22242;48.796;9.930;2022-08-19T07:34:29;33.78;;;24.15;;
36205;SDS011;22242;48.796;9.930;2022-08-19T07:37:00;30.95;;;23.00;;
36205;SDS011;22242;48.796;9.930;2022-08-19T07:39:29;33.90;;;24.02;;
36205;SDS011;22242;48.796;9.930;2022-08-19T07:41:58;31.95;;;23.95;;
36205;SDS011;22242;48.796;9.930;2022-08-19T07:44:27;33.88;;;23.88;;
36205;SDS011;22242;48.796;9.930;2022-08-19T07:46:54;34.10;;;24.38;;
36205;SDS011;22242;48.796;9.930;2022-08-19T07:49:23;34.33;;;24.88;;
36205;SDS011;22242;48.796;9.930;2022-08-19T07:51:51;36.50;;;25.48;;
36205;SDS011;22242;48.796;9.930;2022-08-19T07:54:22;31.38;;;23.05;;
36205;SDS011;22242;48.796;9.930;2022-08-19T07:56:51;36.05;;;24.90;;
36205;SDS011;22242;48.796;9.930;2022-08-19T07:59:18;35.70;;;24.27;;
36205;SDS011;22242;48.796;9.930;2022-08-19T08:01:45;36.47;;;25.65;;
36205;SDS011;22242;48.796;9.930;2022-08-19T08:04:12;36.25;;;24.98;;
36205;SDS011;22242;48.796;9.930;2022-08-19T08:06:57;35.05;;;25.38;;
36205;SDS011;22242;48.796;9.930;2022-08-19T08:09:43;38.35;;;24.63;;
36205;SDS011;22242;48.796;9.930;2022-08-19T08:12:13;37.08;;;25.42;;
36205;SDS011;22242;48.796;9.930;2022-08-19T08:14:44;36.17;;;25.23;;
36205;SDS011;22242;48.796;9.930;2022-08-19T08:17:14;34.72;;;24.25;;
36205;SDS011;22242;48.796;9.930;2022-08-19T08:19:42;33.08;;;24.40;;
36205;SDS011;22242;48.796;9.930;2022-08-19T08:22:10;33.90;;;24.05;;
36205;SDS011;22242;48.796;9.930;2022-08-19T08:25:04;32.78;;;23.50;;
36205;SDS011;22242;48.796;9.930;2022-08-19T08:27:35;37.25;;;25.33;;
36205;SDS011;22242;48.796;9.930;2022-08-19T08:30:05;36.22;;;24.90;;
36205;SDS011;22242;48.796;9.930;2022-08-19T08:32:34;37.90;;;25.40;;
36205;SDS011;22242;48.796;9.930;2022-08-19T08:35:02;32.38;;;23.88;;
36205;SDS011;22242;48.796;9.930;2022-08-19T08:37:30;34.03;;;24.70;;
36205;SDS011;22242;48.796;9.930;2022-08-19T08:39:56;36.05;;;25.65;;
36205;SDS011;22242;48.796;9.930;2022-08-19T08:42:27;37.35;;;25.60;;
36205;SDS011;22242;48.796;9.930;2022-08-19T08:44:59;35.97;;;25.73;;
36205;SDS011;22242;48.796;9.930;2022-08-19T08:47:31;33.15;;;24.58;;
36205;SDS011;22242;48.796;9.930;2022-08-19T08:50:03;36.10;;;25.20;;
36205;SDS011;22242;48.796;9.930;2022-08-19T08:52:33;33.08;;;23.70;;
36205;SDS011;22242;48.796;9.930;2022-08-19T08:55:03;32.58;;;23.60;;
36205;SDS011;22242;48.796;9.930;2022-08-19T08:57:35;33.63;;;25.20;;
36205;SDS011;22242;48.796;9.930;2022-08-19T09:00:08;35.22;;;24.98;;
36205;SDS011;22242;48.796;9.930;2022-08-19T09:02:38;35.25;;;25.25;;
36205;SDS011;22242;48.796;9.930;2022-08-19T09:05:05;32.60;;;23.52;;
36205;SDS011;22242;48.796;9.930;2022-08-19T09:07:39;33.72;;;24.63;;
36205;SDS011;22242;48.796;9.930;2022-08-19T09:10:15;36.33;;;25.10;;
36205;SDS011;22242;48.796;9.930;2022-08-19T09:12:51;36.00;;;25.73;;
36205;SDS011;22242;48.796;9.930;2022-08-19T09:15:29;35.33;;;25.45;;
36205;SDS011;22242;48.796;9.930;2022-08-19T09:20:29;34.13;;;24.27;;
36205;SDS011;22242;48.796;9.930;2022-08-19T09:22:57;37.35;;;24.83;;
36205;SDS011;22242;48.796;9.930;2022-08-19T09:25:24;36.35;;;24.60;;
36205;SDS011;22242;48.796;9.930;2022-08-19T09:27:54;33.35;;;24.30;;
36205;SDS011;22242;48.796;9.930;2022-08-19T09:30:24;31.73;;;23.60;;
36205;SDS011;22242;48.796;9.930;2022-08-19T09:32:54;32.65;;;23.30;;
36205;SDS011;22242;48.796;9.930;2022-08-19T09:35:21;34.72;;;24.13;;
36205;SDS011;22242;48.796;9.930;2022-08-19T09:37:50;33.88;;;25.00;;
36205;SDS011;22242;48.796;9.930;2022-08-19T09:40:18;33.90;;;24.30;;
36205;SDS011;22242;48.796;9.930;2022-08-19T09:42:45;33.38;;;24.30;;
36205;SDS011;22242;48.796;9.930;2022-08-19T09:45:15;37.22;;;26.38;;
36205;SDS011;22242;48.796;9.930;2022-08-19T09:47:43;39.10;;;26.75;;
36205;SDS011;22242;48.796;9.930;2022-08-19T09:50:11;35.35;;;26.65;;
36205;SDS011;22242;48.796;9.930;2022-08-19T09:52:38;38.47;;;26.48;;
36205;SDS011;22242;48.796;9.930;2022-08-19T09:55:08;39.88;;;26.27;;
36205;SDS011;22242;48.796;9.930;2022-08-19T09:57:36;36.10;;;25.40;;
36205;SDS011;22242;48.796;9.930;2022-08-19T10:00:04;40.05;;;27.05;;
36205;SDS011;22242;48.796;9.930;2022-08-19T10:02:35;36.85;;;26.38;;
36205;SDS011;22242;48.796;9.930;2022-08-19T10:05:02;35.10;;;25.30;;
36205;SDS011;22242;48.796;9.930;2022-08-19T10:07:47;34.33;;;25.92;;
36205;SDS011;22242;48.796;9.930;2022-08-19T10:10:14;35.35;;;25.27;;
36205;SDS011;22242;48.796;9.930;2022-08-19T10:12:41;35.35;;;26.30;;
36205;SDS011;22242;48.796;9.930;2022-08-19T10:15:12;39.72;;;26.20;;
36205;SDS011;22242;48.796;9.930;2022-08-19T10:17:41;36.35;;;27.25;;
36205;SDS011;22242;48.796;9.930;2022-08-19T10:20:08;37.42;;;27.70;;
36205;SDS011;22242;48.796;9.930;2022-08-19T10:22:36;36.58;;;27.65;;
36205;SDS011;22242;48.796;9.930;2022-08-19T10:25:05;37.95;;;26.25;;
36205;SDS011;22242;48.796;9.930;2022-08-19T10:27:32;35.47;;;25.80;;
36205;SDS011;22242;48.796;9.930;2022-08-19T10:29:59;39.60;;;27.75;;
36205;SDS011;22242;48.796;9.930;2022-08-19T10:32:27;39.97;;;27.48;;
36205;SDS011;22242;48.796;9.930;2022-08-19T10:34:56;40.90;;;27.10;;
36205;SDS011;22242;48.796;9.930;2022-08-19T10:37:23;45.00;;;27.15;;
36205;SDS011;22242;48.796;9.930;2022-08-19T10:39:50;37.33;;;26.33;;
36205;SDS011;22242;48.796;9.930;2022-08-19T10:42:17;42.50;;;27.48;;
36205;SDS011;22242;48.796;9.930;2022-08-19T10:44:45;39.00;;;27.60;;
36205;SDS011;22242;48.796;9.930;2022-08-19T10:47:13;41.15;;;28.77;;
36205;SDS011;22242;48.796;9.930;2022-08-19T10:49:40;39.97;;;29.00;;
36205;SDS011;22242;48.796;9.930;2022-08-19T10:52:22;43.10;;;28.42;;
36205;SDS011;22242;48.796;9.930;2022-08-19T10:55:04;38.90;;;26.83;;
36205;SDS011;22242;48.796;9.930;2022-08-19T10:57:50;40.78;;;27.52;;
36205;SDS011;22242;48.796;9.930;2022-08-19T11:00:18;39.95;;;28.15;;
36205;SDS011;22242;48.796;9.930;2022-08-19T11:02:45;40.03;;;28.00;;
36205;SDS011;22242;48.796;9.930;2022-08-19T11:05:13;37.17;;;27.80;;
36205;SDS011;22242;48.796;9.930;2022-08-19T11:07:41;43.28;;;28.88;;
36205;SDS011;22242;48.796;9.930;2022-08-19T11:10:10;38.63;;;28.08;;
36205;SDS011;22242;48.796;9.930;2022-08-19T11:12:39;37.88;;;27.30;;
36205;SDS011;22242;48.796;9.930;2022-08-19T11:15:07;40.28;;;27.17;;
36205;SDS011;22242;48.796;9.930;2022-08-19T11:17:36;42.42;;;28.73;;
36205;SDS011;22242;48.796;9.930;2022-08-19T11:20:06;43.90;;;28.42;;
36205;SDS011;22242;48.796;9.930;2022-08-19T11:22:34;42.67;;;29.77;;
36205;SDS011;22242;48.796;9.930;2022-08-19T11:25:03;45.03;;;29.75;;
36205;SDS011;22242;48.796;9.930;2022-08-19T11:27:30;48.63;;;30.70;;
36205;SDS011;22242;48.796;9.930;2022-08-19T11:29:57;50.25;;;30.75;;
36205;SDS011;22242;48.796;9.930;2022-08-19T11:32:24;47.17;;;30.27;;
36205;SDS011;22242;48.796;9.930;2022-08-19T11:34:51;45.15;;;31.05;;
36205;SDS011;22242;48.796;9.930;2022-08-19T11:37:19;44.63;;;30.13;;
36205;SDS011;22242;48.796;9.930;2022-08-19T11:39:46;43.55;;;29.60;;
36205;SDS011;22242;48.796;9.930;2022-08-19T11:42:14;51.28;;;32.72;;
36205;SDS011;22242;48.796;9.930;2022-08-19T11:44:58;50.03;;;32.70;;
36205;SDS011;22242;48.796;9.930;2022-08-19T11:47:25;46.55;;;33.42;;
36205;SDS011;22242;48.796;9.930;2022-08-19T11:49:52;46.83;;;32.78;;
36205;SDS011;22242;48.796;9.930;2022-08-19T11:52:19;45.20;;;30.48;;
36205;SDS011;22242;48.796;9.930;2022-08-19T11:54:46;44.35;;;30.30;;
36205;SDS011;22242;48.796;9.930;2022-08-19T11:57:14;44.72;;;31.95;;
36205;SDS011;22242;48.796;9.930;2022-08-19T11:59:42;41.13;;;29.55;;
36205;SDS011;22242;48.796;9.930;2022-08-19T12:02:14;39.42;;;28.38;;
36205;SDS011;22242;48.796;9.930;2022-08-19T12:04:41;43.05;;;29.27;;
36205;SDS011;22242;48.796;9.930;2022-08-19T12:07:08;41.13;;;28.17;;
36205;SDS011;22242;48.796;9.930;2022-08-19T12:09:35;39.95;;;28.55;;
36205;SDS011;22242;48.796;9.930;2022-08-19T12:12:04;39.03;;;27.98;;
36205;SDS011;22242;48.796;9.930;2022-08-19T12:14:33;37.38;;;27.58;;
36205;SDS011;22242;48.796;9.930;2022-08-19T12:17:00;35.17;;;25.73;;
36205;SDS011;22242;48.796;9.930;2022-08-19T12:19:29;39.42;;;26.40;;
36205;SDS011;22242;48.796;9.930;2022-08-19T12:21:58;34.58;;;25.23;;
36205;SDS011;22242;48.796;9.930;2022-08-19T12:24:26;35.97;;;26.23;;
36205;SDS011;22242;48.796;9.930;2022-08-19T12:26:54;36.60;;;27.45;;
36205;SDS011;22242;48.796;9.930;2022-08-19T12:29:23;36.28;;;26.48;;
36205;SDS011;22242;48.796;9.930;2022-08-19T12:31:56;39.15;;;26.67;;
36205;SDS011;22242;48.796;9.930;2022-08-19T12:34:26;34.72;;;25.67;;
36205;SDS011;22242;48.796;9.930;2022-08-19T12:36:56;37.28;;;27.75;;
36205;SDS011;22242;48.796;9.930;2022-08-19T12:39:23;38.13;;;27.05;;
36205;SDS011;22242;48.796;9.930;2022-08-19T12:41:50;35.20;;;25.95;;
36205;SDS011;22242;48.796;9.930;2022-08-19T12:44:17;34.72;;;23.75;;
36205;SDS011;22242;48.796;9.930;2022-08-19T12:46:44;34.20;;;24.65;;
36205;SDS011;22242;48.796;9.930;2022-08-19T12:49:13;34.38;;;24.65;;
36205;SDS011;22242;48.796;9.930;2022-08-19T12:51:41;40.42;;;26.08;;
36205;SDS011;22242;48.796;9.930;2022-08-19T12:54:08;31.15;;;24.23;;
36205;SDS011;22242;48.796;9.930;2022-08-19T12:56:36;33.75;;;24.33;;
36205;SDS011;22242;48.796;9.930;2022-08-19T12:59:03;34.83;;;25.35;;
36205;SDS011;22242;48.796;9.930;2022-08-19T13:01:31;31.30;;;24.15;;
36205;SDS011;22242;48.796;9.930;2022-08-19T13:03:58;28.08;;;20.58;;
36205;SDS011;22242;48.796;9.930;2022-08-19T13:06:27;31.42;;;22.55;;
36205;SDS011;22242;48.796;9.930;2022-08-19T13:08:54;26.27;;;19.30;;
36205;SDS011;22242;48.796;9.930;2022-08-19T13:11:22;33.03;;;22.95;;
36205;SDS011;22242;48.796;9.930;2022-08-19T13:13:51;27.00;;;19.20;;
36205;SDS011;22242;48.796;9.930;2022-08-19T13:16:18;27.23;;;18.25;;
36205;SDS011;22242;48.796;9.930;2022-08-19T13:18:47;24.77;;;18.55;;
36205;SDS011;22242;48.796;9.930;2022-08-19T13:21:14;24.33;;;17.52;;
36205;SDS011;22242;48.796;9.930;2022-08-19T13:23:43;20.75;;;17.02;;
36205;SDS011;22242;48.796;9.930;2022-08-19T13:26:10;23.63;;;17.45;;
36205;SDS011;22242;48.796;9.930;2022-08-19T13:28:39;18.45;;;16.15;;
36205;SDS011;22242;48.796;9.930;2022-08-19T13:31:25;20.08;;;16.50;;
36205;SDS011;22242;48.796;9.930;2022-08-19T13:34:11;18.80;;;16.75;;
36205;SDS011;22242;48.796;9.930;2022-08-19T13:36:39;20.42;;;17.83;;
36205;SDS011;22242;48.796;9.930;2022-08-19T13:39:08;19.77;;;16.27;;
36205;SDS011;22242;48.796;9.930;2022-08-19T13:41:36;22.42;;;17.17;;
36205;SDS011;22242;48.796;9.930;2022-08-19T13:44:03;20.40;;;17.38;;
36205;SDS011;22242;48.796;9.930;2022-08-19T13:46:31;19.38;;;16.90;;
36205;SDS011;22242;48.796;9.930;2022-08-19T13:48:58;18.50;;;15.98;;
36205;SDS011;22242;48.796;9.930;2022-08-19T13:51:25;19.15;;;16.65;;
36205;SDS011;22242;48.796;9.930;2022-08-19T13:53:52;20.75;;;17.17;;
36205;SDS011;22242;48.796;9.930;2022-08-19T13:56:21;17.65;;;15.75;;
36205;SDS011;22242;48.796;9.930;2022-08-19T13:58:49;20.60;;;16.73;;
36205;SDS011;22242;48.796;9.930;2022-08-19T14:01:18;17.05;;;14.00;;
36205;SDS011;22242;48.796;9.930;2022-08-19T14:03:46;16.02;;;14.10;;
36205;SDS011;22242;48.796;9.930;2022-08-19T14:06:13;18.35;;;14.88;;
36205;SDS011;22242;48.796;9.930;2022-08-19T14:08:41;16.08;;;14.38;;
36205;SDS011;22242;48.796;9.930;2022-08-19T14:11:09;15.65;;;14.00;;
36205;SDS011;22242;48.796;9.930;2022-08-19T14:13:37;16.33;;;13.30;;
36205;SDS011;22242;48.796;9.930;2022-08-19T14:16:06;15.10;;;13.35;;
36205;SDS011;22242;48.796;9.930;2022-08-19T14:18:34;14.50;;;12.30;;
36205;SDS011;22242;48.796;9.930;2022-08-19T14:21:02;14.52;;;12.32;;
36205;SDS011;22242;48.796;9.930;2022-08-19T14:23:29;14.25;;;12.82;;
36205;SDS011;22242;48.796;9.930;2022-08-19T14:26:02;15.73;;;13.63;;
36205;SDS011;22242;48.796;9.930;2022-08-19T14:28:30;17.40;;;14.27;;
36205;SDS011;22242;48.796;9.930;2022-08-19T14:30:58;16.17;;;14.23;;
36205;SDS011;22242;48.796;9.930;2022-08-19T14:33:25;18.27;;;14.60;;
36205;SDS011;22242;48.796;9.930;2022-08-19T14:35:52;16.48;;;14.20;;